1898 NOT_NAMED (1898032S10063)


IBTrACS version v04r00. Visit IBTrACS website for data access.
Please direct all questions to the IBTrACS Q and A forum

Storm track - Intensity - Wind Radii - Intensity Data - Source Data - All data

Summary Information

Storm ID 1898032S10063
Start Jan 31 18Z
End Feb 7 06Z
ATCF IDs
Track status Best track data.

Storm track plot

Map of storm track

Intensity plots

No Intensity information for this storm


Radial wind information

No radial wind information for this storm


Position and Intensity Table

BASIN ISO_TIME_________ NATURE LAT LON
degrees north degrees east
SI 1898-01-31 18:00:00 NR -9.70 63.20
SI 21:00:00 NR -10.02 63.12
SI 1898-02-01 00:00:00 NR -10.34 63.04
SI 03:00:00 NR -10.66 62.97
SI 06:00:00 NR -11.00 62.90
SI 09:00:00 NR -11.35 62.84
SI 12:00:00 NR -11.71 62.78
SI 15:00:00 NR -12.10 62.74
SI 18:00:00 NR -12.50 62.70
SI 21:00:00 NR -12.95 62.66
SI 1898-02-02 00:00:00 NR -13.41 62.64
SI 03:00:00 NR -13.87 62.61
SI 06:00:00 NR -14.30 62.60
SI 09:00:00 NR -14.65 62.59
SI 12:00:00 NR -14.96 62.59
SI 15:00:00 NR -15.27 62.59
SI 18:00:00 NR -15.60 62.60
SI 21:00:00 NR -15.99 62.61
SI 1898-02-03 00:00:00 NR -16.39 62.64
SI 03:00:00 NR -16.80 62.66
SI 06:00:00 NR -17.20 62.70
SI 09:00:00 NR -17.58 62.74
SI 12:00:00 NR -17.94 62.79
SI 15:00:00 NR -18.28 62.84
SI 18:00:00 NR -18.60 62.90
SI 21:00:00 NR -18.88 62.96
SI 1898-02-04 00:00:00 NR -19.15 63.02
SI 03:00:00 NR -19.42 63.10
SI 06:00:00 NR -19.70 63.20
SI 09:00:00 NR -20.04 63.33
SI 12:00:00 NR -20.41 63.48
SI 15:00:00 NR -20.77 63.64
SI 18:00:00 NR -21.10 63.80
SI 21:00:00 NR -21.37 63.91
SI 1898-02-05 00:00:00 NR -21.61 64.02
SI 03:00:00 NR -21.85 64.14
SI 06:00:00 NR -22.10 64.30
SI 09:00:00 NR -22.39 64.53
SI 12:00:00 NR -22.70 64.79
SI 15:00:00 NR -23.01 65.06
SI 18:00:00 NR -23.30 65.30
SI 21:00:00 NR -23.57 65.46
SI 1898-02-06 00:00:00 NR -23.82 65.60
SI 03:00:00 NR -24.06 65.74
SI 06:00:00 NR -24.30 65.90
SI 09:00:00 NR -24.54 66.13
SI 12:00:00 NR -24.77 66.38
SI 15:00:00 NR -24.99 66.64
SI 18:00:00 NR -25.20 66.90
SI 21:00:00 NR -25.39 67.14
SI 1898-02-07 00:00:00 NR -25.57 67.37
SI 03:00:00 NR -25.74 67.59
SI 06:00:00 NR -25.90 67.80

Source Information

Agency Information
USA
TOKYO
CMA
HKO
NEWDELHI
REUNION
BOM
NADI
WELLINGTON
DS824
TD9636 cons_worldwide_trop_cyclone_18710101-19891231-005:Line=2429
TD9635
NEUMANN
MLC

All available IBTrACS Data

SEASON BASIN SUBBASIN ISO_TIME_________ NATURE LAT LON DIST2LAND LANDFALL IFLAG USA SSHS TD9636 LAT TD9636 LON TD9636 STAGE STORM SPEED STORM DIR
Year degrees north degrees east km km 1 degrees north degrees east kts degrees
1898 SI MM 1898-01-31 18:00:00 NR -9.70 63.20 1305 1270 __________O___ -1 -9.70 63.20 7 7 194
1898 SI MM 21:00:00 NR -10.02 63.12 1270 1235 __________P___ -1 -10.02 63.12 7 7 194
1898 SI MM 1898-02-01 00:00:00 NR -10.34 63.04 1235 1205 __________P___ -1 -10.34 63.04 7 7 193
1898 SI MM 03:00:00 NR -10.66 62.97 1195 1160 __________P___ -1 -10.66 62.97 7 7 192
1898 SI MM 06:00:00 NR -11.00 62.90 1160 1125 __________O___ -1 -11.00 62.90 7 7 190
1898 SI MM 09:00:00 NR -11.35 62.84 1125 1086 __________P___ -1 -11.35 62.84 7 7 189
1898 SI MM 12:00:00 NR -11.71 62.78 1086 1042 __________P___ -1 -11.71 62.78 7 8 187
1898 SI MM 15:00:00 NR -12.10 62.74 1042 1003 __________P___ -1 -12.10 62.74 7 8 186
1898 SI MM 18:00:00 NR -12.50 62.70 1003 965 __________O___ -1 -12.50 62.70 7 9 184
1898 SI MM 21:00:00 NR -12.95 62.66 965 913 __________P___ -1 -12.95 62.66 7 9 184
1898 SI MM 1898-02-02 00:00:00 NR -13.41 62.64 913 876 __________P___ -1 -13.41 62.64 7 9 184
1898 SI MM 03:00:00 NR -13.87 62.61 867 831 __________P___ -1 -13.87 62.61 7 9 182
1898 SI MM 06:00:00 NR -14.30 62.60 831 805 __________O___ -1 -14.30 62.60 7 8 182
1898 SI MM 09:00:00 NR -14.65 62.59 805 780 __________P___ -1 -14.65 62.59 7 7 0
1898 SI MM 12:00:00 NR -14.96 62.59 771 746 __________P___ -1 -14.96 62.59 7 6 178
1898 SI MM 15:00:00 NR -15.27 62.59 746 722 __________P___ -1 -15.27 62.59 7 6 178
1898 SI MM 18:00:00 NR -15.60 62.60 722 691 __________O___ -1 -15.60 62.60 7 7 178
1898 SI MM 21:00:00 NR -15.99 62.61 691 662 __________P___ -1 -15.99 62.61 7 8 177
1898 SI MM 1898-02-03 00:00:00 NR -16.39 62.64 662 643 __________P___ -1 -16.39 62.64 7 8 177
1898 SI MM 03:00:00 NR -16.80 62.66 643 618 __________P___ -1 -16.80 62.66 7 8 176
1898 SI MM 06:00:00 NR -17.20 62.70 618 595 __________O___ -1 -17.20 62.70 7 8 175
1898 SI MM 09:00:00 NR -17.58 62.74 595 589 __________P___ -1 -17.58 62.74 7 7 174
1898 SI MM 12:00:00 NR -17.94 62.79 589 570 __________P___ -1 -17.94 62.79 7 7 172
1898 SI MM 15:00:00 NR -18.28 62.84 570 567 __________P___ -1 -18.28 62.84 7 7 171
1898 SI MM 18:00:00 NR -18.60 62.90 567 556 __________O___ -1 -18.60 62.90 7 6 169
1898 SI MM 21:00:00 NR -18.88 62.96 566 560 __________P___ -1 -18.88 62.96 7 6 169
1898 SI MM 1898-02-04 00:00:00 NR -19.15 63.02 560 555 __________P___ -1 -19.15 63.02 7 6 166
1898 SI MM 03:00:00 NR -19.42 63.10 563 559 __________P___ -1 -19.42 63.10 7 6 163
1898 SI MM 06:00:00 NR -19.70 63.20 568 566 __________O___ -1 -19.70 63.20 7 7 161
1898 SI MM 09:00:00 NR -20.04 63.33 575 574 __________P___ -1 -20.04 63.33 7 8 159
1898 SI MM 12:00:00 NR -20.41 63.48 594 594 __________P___ -1 -20.41 63.48 7 8 158
1898 SI MM 15:00:00 NR -20.77 63.64 606 606 __________P___ -1 -20.77 63.64 7 8 157
1898 SI MM 18:00:00 NR -21.10 63.80 630 630 __________O___ -1 -21.10 63.80 7 7 157
1898 SI MM 21:00:00 NR -21.37 63.91 645 645 __________P___ -1 -21.37 63.91 7 6 158
1898 SI MM 1898-02-05 00:00:00 NR -21.61 64.02 659 659 __________P___ -1 -21.61 64.02 7 5 156
1898 SI MM 03:00:00 NR -21.85 64.14 677 677 __________P___ -1 -21.85 64.14 7 6 152
1898 SI MM 06:00:00 NR -22.10 64.30 703 703 __________O___ -1 -22.10 64.30 7 7 147
1898 SI MM 09:00:00 NR -22.39 64.53 732 732 __________P___ -1 -22.39 64.53 7 8 143
1898 SI MM 12:00:00 NR -22.70 64.79 772 772 __________P___ -1 -22.70 64.79 7 8 141
1898 SI MM 15:00:00 NR -23.01 65.06 812 812 __________P___ -1 -23.01 65.06 7 8 142
1898 SI MM 18:00:00 NR -23.30 65.30 843 843 __________O___ -1 -23.30 65.30 7 7 147
1898 SI MM 21:00:00 NR -23.57 65.46 874 874 __________P___ -1 -23.57 65.46 7 6 152
1898 SI MM 1898-02-06 00:00:00 NR -23.82 65.60 892 892 __________P___ -1 -23.82 65.60 7 6 153
1898 SI MM 03:00:00 NR -24.06 65.74 915 915 __________P___ -1 -24.06 65.74 7 6 150
1898 SI MM 06:00:00 NR -24.30 65.90 943 943 __________O___ -1 -24.30 65.90 7 6 144
1898 SI MM 09:00:00 NR -24.54 66.13 971 971 __________P___ -1 -24.54 66.13 7 6 137
1898 SI MM 12:00:00 NR -24.77 66.38 1013 1013 __________P___ -1 -24.77 66.38 7 7 134
1898 SI MM 15:00:00 NR -24.99 66.64 1041 1041 __________P___ -1 -24.99 66.64 7 6 132
1898 SI MM 18:00:00 NR -25.20 66.90 1078 1078 __________O___ -1 -25.20 66.90 7 6 131
1898 SI MM 21:00:00 NR -25.39 67.14 1106 1106 __________P___ -1 -25.39 67.14 7 6 131
1898 SI MM 1898-02-07 00:00:00 NR -25.57 67.37 1143 1143 __________P___ -1 -25.57 67.37 7 5 131
1898 SI MM 03:00:00 NR -25.74 67.59 1166 1166 __________P___ -1 -25.74 67.59 7 5 131
1898 SI MM 06:00:00 NR -25.90 67.80 1194 __________O___ -1 -25.90 67.80 7 5 131